createdAt,value
2022-09-10T00:01:22.228Z,4.78
2022-09-10T00:03:50.377Z,5.60
2022-09-10T00:06:19.010Z,5.07
2022-09-10T00:08:47.399Z,4.85
2022-09-10T00:11:15.463Z,5.20
2022-09-10T00:13:43.818Z,4.55
2022-09-10T00:16:14.703Z,4.70
2022-09-10T00:18:43.517Z,4.90
2022-09-10T00:21:14.391Z,4.65
2022-09-10T00:23:44.001Z,4.68
2022-09-10T00:26:21.943Z,4.70
2022-09-10T00:28:54.649Z,4.70
2022-09-10T00:31:23.783Z,4.65
2022-09-10T00:33:52.630Z,4.85
2022-09-10T00:36:28.820Z,5.00
2022-09-10T00:38:58.834Z,4.65
2022-09-10T00:41:26.832Z,5.25
2022-09-10T00:43:57.120Z,5.10
2022-09-10T00:46:29.748Z,5.40
2022-09-10T00:49:00.066Z,4.82
2022-09-10T00:51:31.146Z,4.45
2022-09-10T00:56:28.371Z,4.68
2022-09-10T00:58:56.330Z,5.20
2022-09-10T01:01:23.799Z,4.60
2022-09-10T01:03:52.351Z,4.53
2022-09-10T01:06:19.732Z,5.35
2022-09-10T01:08:47.124Z,4.70
2022-09-10T01:11:28.603Z,5.10
2022-09-10T01:14:14.401Z,4.82
2022-09-10T01:17:03.727Z,4.95
2022-09-10T01:19:54.269Z,4.57
2022-09-10T01:22:59.921Z,4.60
2022-09-10T01:25:29.974Z,4.85
2022-09-10T01:28:00.442Z,4.68
2022-09-10T01:30:34.945Z,4.40
2022-09-10T01:33:20.436Z,4.40
2022-09-10T01:36:02.004Z,4.50
2022-09-10T01:38:31.853Z,4.75
2022-09-10T01:40:59.899Z,4.53
2022-09-10T01:43:27.860Z,4.60
2022-09-10T01:46:19.372Z,4.35
2022-09-10T01:49:10.472Z,4.57
2022-09-10T01:52:01.868Z,3.88
2022-09-10T01:57:45.519Z,4.20
2022-09-10T02:00:15.114Z,4.15
2022-09-10T02:03:14.259Z,4.05
2022-09-10T02:05:43.687Z,4.30
2022-09-10T02:08:24.178Z,4.20
2022-09-10T02:10:57.775Z,4.07
2022-09-10T02:13:27.511Z,4.13
2022-09-10T02:15:56.729Z,3.85
2022-09-10T02:18:26.283Z,4.30
2022-09-10T02:20:56.479Z,4.20
2022-09-10T02:23:31.541Z,4.43
2022-09-10T02:25:59.256Z,4.30
2022-09-10T02:28:27.505Z,4.28
2022-09-10T02:30:55.262Z,3.90
2022-09-10T02:33:22.664Z,3.97
2022-09-10T02:35:50.098Z,3.92
2022-09-10T02:38:18.319Z,4.10
2022-09-10T02:40:49.185Z,3.55
2022-09-10T02:43:17.544Z,4.18
2022-09-10T02:45:45.393Z,3.78
2022-09-10T02:48:13.128Z,3.83
2022-09-10T02:50:40.823Z,4.15
2022-09-10T02:53:08.293Z,4.20
2022-09-10T02:55:35.684Z,3.90
2022-09-10T02:58:03.127Z,4.15
2022-09-10T03:00:32.056Z,4.15
2022-09-10T03:03:02.963Z,4.10
2022-09-10T03:07:58.061Z,3.78
2022-09-10T03:10:25.452Z,3.85
2022-09-10T03:12:54.024Z,3.78
2022-09-10T03:15:23.030Z,3.92
2022-09-10T03:17:51.533Z,4.28
2022-09-10T03:20:18.984Z,3.78
2022-09-10T03:22:46.355Z,4.00
2022-09-10T03:25:13.789Z,4.50
2022-09-10T03:27:41.144Z,4.20
2022-09-10T03:30:09.409Z,5.07
2022-09-10T03:32:37.390Z,4.25
2022-09-10T03:35:05.163Z,4.78
2022-09-10T03:37:33.667Z,4.32
2022-09-10T03:40:01.262Z,4.45
2022-09-10T03:42:28.759Z,4.80
2022-09-10T03:44:56.816Z,4.10
2022-09-10T03:47:24.496Z,4.78
2022-09-10T03:49:51.949Z,4.78
2022-09-10T03:52:19.427Z,4.65
2022-09-10T03:54:46.753Z,4.47
2022-09-10T03:57:14.075Z,4.65
2022-09-10T03:59:41.460Z,5.05
2022-09-10T04:02:11.615Z,5.00
2022-09-10T04:04:39.146Z,4.93
2022-09-10T04:07:07.256Z,4.60
2022-09-10T04:09:34.915Z,5.18
2022-09-10T04:12:03.865Z,5.20
2022-09-10T04:14:31.358Z,4.68
2022-09-10T04:16:59.032Z,4.78
2022-09-10T04:19:27.981Z,5.32
2022-09-10T04:21:55.543Z,5.22
2022-09-10T04:24:22.904Z,4.72
2022-09-10T04:26:50.398Z,4.97
2022-09-10T04:29:18.102Z,4.82
2022-09-10T04:31:46.966Z,4.82
2022-09-10T04:34:14.552Z,5.15
2022-09-10T04:36:42.080Z,5.00
2022-09-10T04:39:09.902Z,5.10
2022-09-10T04:41:37.213Z,4.53
2022-09-10T04:44:04.562Z,4.88
2022-09-10T04:46:32.241Z,4.40
2022-09-10T04:49:00.371Z,4.82
2022-09-10T04:51:28.135Z,4.35
2022-09-10T04:53:55.563Z,4.95
2022-09-10T04:56:23.044Z,4.68
2022-09-10T04:58:50.440Z,4.80
2022-09-10T05:01:17.861Z,4.35
2022-09-10T05:03:45.262Z,4.45
2022-09-10T05:06:12.688Z,4.10
2022-09-10T05:08:40.230Z,3.80
2022-09-10T05:11:07.764Z,3.83
2022-09-10T05:13:35.156Z,3.65
2022-09-10T05:16:02.616Z,4.07
2022-09-10T05:18:30.318Z,3.83
2022-09-10T05:20:57.820Z,3.15
2022-09-10T05:23:26.378Z,4.13
2022-09-10T05:25:53.979Z,5.97
2022-09-10T05:28:24.444Z,5.70
2022-09-10T05:30:52.076Z,5.20
2022-09-10T05:33:19.887Z,5.25
2022-09-10T05:35:51.870Z,4.65
2022-09-10T05:38:20.075Z,4.55
2022-09-10T05:40:48.279Z,5.20
2022-09-10T05:43:15.738Z,4.75
2022-09-10T05:45:43.216Z,4.72
2022-09-10T05:48:10.692Z,4.57
2022-09-10T05:50:38.662Z,4.60
2022-09-10T05:53:06.398Z,5.30
2022-09-10T05:55:33.743Z,4.93
2022-09-10T05:58:01.262Z,4.95
2022-09-10T06:00:28.883Z,5.30
2022-09-10T06:02:57.374Z,6.00
2022-09-10T06:05:24.920Z,5.57
2022-09-10T06:07:52.693Z,5.95
2022-09-10T06:10:20.153Z,5.53
2022-09-10T06:12:48.611Z,6.05
2022-09-10T06:15:16.513Z,5.82
2022-09-10T06:17:45.883Z,5.25
2022-09-10T06:20:13.679Z,5.93
2022-09-10T06:22:41.276Z,5.65
2022-09-10T06:25:09.180Z,6.47
2022-09-10T06:27:36.583Z,7.20
2022-09-10T06:30:04.414Z,6.60
2022-09-10T06:32:33.009Z,6.18
2022-09-10T06:35:00.513Z,5.32
2022-09-10T06:37:28.012Z,5.07
2022-09-10T06:39:55.456Z,4.25
2022-09-10T06:42:24.029Z,4.78
2022-09-10T06:44:52.202Z,4.55
2022-09-10T06:48:01.072Z,4.95
2022-09-10T06:50:09.075Z,5.07
2022-09-10T06:52:36.672Z,4.63
2022-09-10T06:55:04.976Z,4.45
2022-09-10T06:57:32.392Z,5.45
2022-09-10T06:59:59.862Z,5.18
2022-09-10T07:02:27.268Z,5.45
2022-09-10T07:04:54.675Z,5.75
2022-09-10T07:07:22.148Z,5.57
2022-09-10T07:09:49.505Z,5.75
2022-09-10T07:12:17.353Z,5.68
2022-09-10T07:14:44.840Z,5.35
2022-09-10T07:17:12.213Z,6.30
2022-09-10T07:19:39.825Z,7.25
2022-09-10T07:22:07.238Z,6.30
2022-09-10T07:24:34.720Z,5.95
2022-09-10T07:27:02.109Z,6.28
2022-09-10T07:29:31.260Z,7.05
2022-09-10T07:31:58.803Z,6.70
2022-09-10T07:34:26.334Z,6.25
2022-09-10T07:36:55.818Z,5.85
2022-09-10T07:39:25.734Z,6.28
2022-09-10T07:41:53.531Z,6.40
2022-09-10T07:44:20.934Z,6.55
2022-09-10T07:46:48.272Z,6.13
2022-09-10T07:49:15.903Z,6.15
2022-09-10T07:51:43.381Z,6.00
2022-09-10T07:54:11.113Z,7.10
2022-09-10T07:56:39.651Z,6.03
2022-09-10T07:59:07.243Z,6.18
2022-09-10T08:01:35.744Z,6.30
2022-09-10T08:04:05.264Z,6.80
2022-09-10T08:06:34.201Z,6.32
2022-09-10T08:09:04.327Z,6.88
2022-09-10T08:11:33.061Z,8.32
2022-09-10T08:14:03.189Z,7.57
2022-09-10T08:16:30.590Z,8.57
2022-09-10T08:18:58.117Z,7.53
2022-09-10T08:21:29.041Z,8.40
2022-09-10T08:23:56.524Z,7.07
2022-09-10T08:26:25.785Z,8.05
2022-09-10T08:28:56.089Z,7.68
2022-09-10T08:31:24.999Z,7.50
2022-09-10T08:33:54.899Z,6.85
2022-09-10T08:36:23.521Z,7.00
2022-09-10T08:38:56.995Z,6.57
2022-09-10T08:41:39.730Z,7.72
2022-09-10T08:44:10.300Z,6.30
2022-09-10T08:47:15.207Z,6.60
2022-09-10T08:49:45.602Z,6.40
2022-09-10T08:52:29.875Z,6.80
2022-09-10T08:55:19.133Z,6.55
2022-09-10T08:57:57.880Z,6.72
2022-09-10T09:00:29.297Z,6.35
2022-09-10T09:03:22.213Z,6.22
2022-09-10T09:06:02.173Z,5.90
2022-09-10T09:08:43.767Z,5.93
2022-09-10T09:11:34.797Z,5.80
2022-09-10T09:14:25.255Z,5.47
2022-09-10T09:17:30.277Z,5.90
2022-09-10T09:20:19.511Z,6.28
2022-09-10T09:23:14.434Z,5.75
2022-09-10T09:26:10.063Z,5.72
2022-09-10T09:28:46.579Z,6.18
2022-09-10T09:31:28.718Z,6.57
2022-09-10T09:34:01.127Z,7.50
2022-09-10T09:36:43.500Z,7.47
2022-09-10T09:39:25.625Z,6.88
2022-09-10T09:42:32.806Z,7.47
2022-09-10T09:45:16.825Z,7.57
2022-09-10T09:47:47.775Z,9.40
2022-09-10T09:50:18.554Z,8.32
2022-09-10T09:52:46.933Z,8.80
2022-09-10T09:55:38.992Z,9.20
2022-09-10T09:58:21.148Z,9.48
2022-09-10T10:01:03.344Z,8.93
2022-09-10T10:04:02.917Z,9.40
2022-09-10T10:06:33.337Z,9.43
2022-09-10T10:09:20.217Z,9.02
2022-09-10T10:11:59.595Z,9.13
2022-09-10T10:14:39.400Z,8.90
2022-09-10T10:17:25.039Z,10.88
2022-09-10T10:20:07.864Z,11.95
2022-09-10T10:22:37.166Z,12.20
2022-09-10T10:25:25.912Z,12.43
2022-09-10T10:27:54.548Z,13.65
2022-09-10T10:30:25.058Z,13.18
2022-09-10T10:33:02.014Z,13.20
2022-09-10T10:35:57.658Z,11.68
2022-09-10T10:38:37.715Z,11.88
2022-09-10T10:41:20.308Z,11.65
2022-09-10T10:44:33.767Z,10.25
2022-09-10T10:47:28.341Z,9.38
2022-09-10T10:50:13.001Z,11.88
2022-09-10T10:52:45.926Z,10.07
2022-09-10T10:55:28.038Z,10.63
2022-09-10T10:58:15.720Z,10.48
2022-09-10T11:00:55.987Z,10.73
2022-09-10T11:03:44.387Z,10.70
2022-09-10T11:06:20.401Z,10.20
2022-09-10T11:08:55.241Z,9.68
2022-09-10T11:11:32.462Z,9.98
2022-09-10T11:14:27.459Z,9.85
2022-09-10T11:17:01.228Z,9.88
2022-09-10T11:19:37.406Z,10.55
2022-09-10T11:22:24.006Z,10.63
2022-09-10T11:25:33.589Z,11.77
2022-09-10T11:28:11.944Z,11.18
2022-09-10T11:30:42.798Z,11.77
2022-09-10T11:33:39.609Z,12.25
2022-09-10T11:36:19.021Z,11.15
2022-09-10T11:39:05.793Z,12.75
2022-09-10T11:41:35.733Z,12.48
2022-09-10T11:44:21.844Z,12.48
2022-09-10T11:47:15.995Z,12.60
2022-09-10T11:49:56.939Z,13.60
2022-09-10T11:52:30.202Z,14.95
2022-09-10T11:54:58.945Z,14.20
2022-09-10T11:57:36.833Z,14.60
2022-09-10T12:00:17.203Z,14.77
2022-09-10T12:03:06.474Z,16.10
2022-09-10T12:06:23.460Z,15.02
2022-09-10T12:09:07.155Z,15.75
2022-09-10T12:11:42.615Z,15.60
2022-09-10T12:14:19.642Z,17.02
2022-09-10T12:16:57.445Z,16.50
2022-09-10T12:19:27.857Z,17.77
2022-09-10T12:22:01.355Z,16.83
2022-09-10T12:24:35.182Z,16.27
2022-09-10T12:27:05.483Z,17.23
2022-09-10T12:29:34.590Z,17.67
2022-09-10T12:32:21.816Z,17.33
2022-09-10T12:35:30.125Z,17.70
2022-09-10T12:38:34.618Z,16.30
2022-09-10T12:41:21.497Z,16.67
2022-09-10T12:43:49.188Z,16.63
2022-09-10T12:46:21.952Z,15.98
2022-09-10T12:48:57.591Z,15.13
2022-09-10T12:51:58.884Z,14.40
2022-09-10T12:54:55.850Z,13.10
2022-09-10T12:57:53.466Z,12.25
2022-09-10T13:00:23.457Z,12.07
2022-09-10T13:02:50.875Z,12.20
2022-09-10T13:05:44.337Z,12.02
2022-09-10T13:08:16.658Z,11.07
2022-09-10T13:10:47.270Z,10.98
2022-09-10T13:13:35.396Z,11.13
2022-09-10T13:16:05.055Z,13.00
2022-09-10T13:18:35.215Z,12.15
2022-09-10T13:21:23.982Z,10.00
2022-09-10T13:23:52.970Z,9.23
2022-09-10T13:26:29.321Z,9.57
2022-09-10T13:29:04.930Z,9.93
2022-09-10T13:31:45.200Z,9.48
2022-09-10T13:34:15.614Z,9.70
2022-09-10T13:36:48.330Z,10.00
2022-09-10T13:39:28.076Z,9.93
2022-09-10T13:42:03.528Z,9.25
2022-09-10T13:44:56.140Z,9.63
2022-09-10T13:47:33.697Z,9.52
2022-09-10T13:50:06.933Z,8.80
2022-09-10T13:52:36.440Z,8.38
2022-09-10T13:55:08.272Z,8.77
2022-09-10T13:57:41.059Z,8.13
2022-09-10T14:00:37.019Z,7.60
2022-09-10T14:03:21.047Z,7.78
2022-09-10T14:05:58.655Z,6.70
2022-09-10T14:08:32.799Z,6.82
2022-09-10T14:11:14.863Z,7.03
2022-09-10T14:13:55.619Z,7.90
2022-09-10T14:16:40.981Z,7.68
2022-09-10T14:19:16.042Z,8.32
2022-09-10T14:21:43.851Z,8.80
2022-09-10T14:24:29.892Z,9.50
2022-09-10T14:27:18.645Z,10.52
2022-09-10T14:29:46.949Z,12.60
2022-09-10T14:32:26.140Z,14.05
2022-09-10T14:34:54.235Z,14.68
2022-09-10T14:37:30.087Z,16.73
2022-09-10T14:40:02.096Z,18.00
2022-09-10T14:42:35.097Z,19.73
2022-09-10T14:45:03.395Z,20.88
2022-09-10T14:47:37.329Z,22.15
2022-09-10T14:50:31.264Z,23.40
2022-09-10T14:52:59.269Z,24.35
2022-09-10T14:55:29.310Z,26.38
2022-09-10T14:57:57.521Z,26.67
2022-09-10T15:00:27.923Z,28.95
2022-09-10T15:02:58.660Z,28.55
2022-09-10T15:05:26.074Z,31.83
2022-09-10T15:07:53.663Z,30.35
2022-09-10T15:10:21.144Z,30.52
2022-09-10T15:12:50.004Z,30.35
2022-09-10T15:15:18.134Z,31.25
2022-09-10T15:17:45.831Z,31.45
2022-09-10T15:20:15.342Z,32.05
2022-09-10T15:22:43.480Z,30.02
2022-09-10T15:25:39.111Z,30.40
2022-09-10T15:28:09.840Z,29.10
2022-09-10T15:30:37.322Z,29.98
2022-09-10T15:33:07.634Z,27.58
2022-09-10T15:35:35.186Z,27.48
2022-09-10T15:38:02.658Z,26.13
2022-09-10T15:40:30.169Z,27.00
2022-09-10T15:42:58.057Z,27.20
2022-09-10T15:45:25.530Z,26.98
2022-09-10T15:47:55.016Z,26.42
2022-09-10T15:50:22.466Z,26.38
2022-09-10T15:52:50.018Z,27.02
2022-09-10T15:55:19.412Z,27.60
2022-09-10T15:57:51.019Z,26.40
2022-09-10T16:00:20.166Z,27.02
2022-09-10T16:02:54.428Z,28.33
2022-09-10T16:05:21.859Z,27.88
2022-09-10T16:07:49.672Z,27.90
2022-09-10T16:10:17.757Z,28.65
2022-09-10T16:12:45.184Z,29.20
2022-09-10T16:15:12.561Z,29.15
2022-09-10T16:17:40.991Z,29.85
2022-09-10T16:20:08.967Z,30.27
2022-09-10T16:22:36.988Z,29.48
2022-09-10T16:25:07.366Z,29.67
2022-09-10T16:27:34.999Z,30.02
2022-09-10T16:30:02.345Z,29.85
2022-09-10T16:32:30.663Z,30.33
2022-09-10T16:34:58.254Z,30.92
2022-09-10T16:37:26.280Z,29.33
2022-09-10T16:39:53.810Z,28.40
2022-09-10T16:42:21.331Z,28.65
2022-09-10T16:44:49.301Z,27.65
2022-09-10T16:47:16.661Z,27.70
2022-09-10T16:49:44.605Z,27.23
2022-09-10T16:52:12.227Z,26.63
2022-09-10T16:54:40.343Z,25.48
2022-09-10T16:57:07.914Z,25.00
2022-09-10T16:59:35.519Z,23.15
2022-09-10T17:02:03.255Z,21.65
2022-09-10T17:04:32.528Z,24.33
2022-09-10T17:06:59.929Z,19.05
2022-09-10T17:09:27.506Z,18.35
2022-09-10T17:11:55.529Z,19.65
2022-09-10T17:14:23.148Z,19.70
2022-09-10T17:16:50.616Z,19.60
2022-09-10T17:19:23.826Z,17.90
2022-09-10T17:21:53.339Z,16.10
2022-09-10T17:24:23.957Z,15.95
2022-09-10T17:26:52.351Z,14.20
2022-09-10T17:29:22.439Z,16.40
2022-09-10T17:31:52.240Z,16.38
2022-09-10T17:34:21.662Z,15.45
2022-09-10T17:36:49.635Z,13.88
2022-09-10T17:39:17.707Z,13.48
2022-09-10T17:41:45.530Z,14.10
2022-09-10T17:44:13.653Z,12.82
2022-09-10T17:46:42.797Z,11.45
2022-09-10T17:49:14.702Z,13.00
2022-09-10T17:51:43.270Z,9.77
2022-09-10T17:54:11.080Z,9.30
2022-09-10T17:56:38.678Z,6.45
2022-09-10T17:59:06.706Z,5.63
2022-09-10T18:01:37.863Z,4.57
2022-09-10T18:04:06.740Z,3.85
2022-09-10T18:06:37.809Z,2.25
2022-09-10T18:11:36.937Z,4.65
2022-09-10T18:14:05.068Z,2.03
2022-09-10T18:16:34.521Z,1.95
2022-09-10T18:19:13.725Z,1.65
2022-09-10T18:21:43.905Z,1.50
2022-09-10T18:24:25.422Z,1.30
2022-09-10T18:26:54.179Z,0.90
2022-09-10T18:29:29.040Z,1.08
2022-09-10T18:31:58.589Z,0.93
2022-09-10T18:34:28.559Z,1.77
2022-09-10T18:36:58.779Z,1.70
2022-09-10T18:39:28.420Z,1.40
2022-09-10T18:41:57.367Z,1.38
2022-09-10T18:44:28.058Z,1.10
2022-09-10T18:46:56.193Z,1.15
2022-09-10T18:49:25.247Z,1.00
2022-09-10T18:51:54.481Z,0.77
2022-09-10T18:54:23.375Z,0.65
2022-09-10T18:56:51.135Z,0.80
2022-09-10T18:59:21.532Z,0.88
2022-09-10T19:01:50.588Z,0.68
2022-09-10T19:04:23.863Z,0.80
2022-09-10T19:06:51.751Z,0.70
2022-09-10T19:09:25.819Z,0.60
2022-09-10T19:11:55.404Z,0.90
2022-09-10T19:14:29.615Z,0.90
2022-09-10T19:16:58.929Z,0.80
2022-09-10T19:19:32.295Z,0.70
2022-09-10T19:22:07.313Z,0.70
2022-09-10T19:24:53.970Z,1.00
2022-09-10T19:27:22.904Z,1.30
2022-09-10T19:29:50.529Z,1.08
2022-09-10T19:32:19.874Z,1.40
2022-09-10T19:34:51.573Z,0.95
2022-09-10T19:37:19.760Z,1.02
2022-09-10T19:39:47.706Z,0.82
2022-09-10T19:42:15.317Z,0.70
2022-09-10T19:44:43.603Z,0.80
2022-09-10T19:47:11.003Z,0.80
2022-09-10T19:49:39.188Z,0.98
2022-09-10T19:52:06.718Z,0.80
2022-09-10T19:54:35.182Z,0.90
2022-09-10T19:57:02.655Z,1.05
2022-09-10T19:59:30.106Z,0.80
2022-09-10T20:01:57.555Z,1.00
2022-09-10T20:04:25.976Z,0.93
2022-09-10T20:06:53.434Z,1.10
2022-09-10T20:09:20.947Z,0.70
2022-09-10T20:11:48.417Z,0.70
2022-09-10T20:14:15.947Z,0.70
2022-09-10T20:16:45.399Z,0.50
2022-09-10T20:19:18.517Z,0.70
2022-09-10T20:21:47.800Z,0.65
2022-09-10T20:24:16.657Z,0.60
2022-09-10T20:26:45.491Z,0.63
2022-09-10T20:29:22.800Z,0.60
2022-09-10T20:31:50.267Z,0.60
2022-09-10T20:34:20.432Z,0.40
2022-09-10T20:36:51.508Z,0.53
2022-09-10T20:41:47.811Z,0.70
2022-09-10T20:44:16.943Z,0.50
2022-09-10T20:46:45.101Z,0.50
2022-09-10T20:49:13.863Z,0.47
2022-09-10T20:51:42.200Z,0.63
2022-09-10T20:54:16.670Z,0.40
2022-09-10T20:56:45.216Z,0.40
2022-09-10T20:59:15.679Z,0.47
2022-09-10T21:01:46.010Z,0.60
2022-09-10T21:04:14.117Z,0.55
2022-09-10T21:06:41.568Z,0.50
2022-09-10T21:09:09.414Z,0.45
2022-09-10T21:11:37.239Z,0.35
2022-09-10T21:14:07.169Z,0.30
2022-09-10T21:16:36.834Z,0.15
2022-09-10T21:19:08.015Z,0.25
2022-09-10T21:24:26.928Z,0.10
2022-09-10T21:29:22.326Z,0.30
2022-09-10T21:31:50.824Z,0.20
2022-09-10T21:34:19.388Z,0.20
2022-09-10T21:36:47.092Z,0.10
2022-09-10T21:39:16.721Z,0.10
2022-09-10T21:41:49.116Z,0.30
2022-09-10T21:44:22.194Z,0.20
2022-09-10T21:46:50.297Z,0.20
2022-09-10T21:49:18.455Z,0.20
2022-09-10T21:51:45.856Z,0.20
2022-09-10T21:54:15.371Z,0.22
2022-09-10T21:56:42.737Z,0.10
2022-09-10T21:59:10.757Z,0.30
2022-09-10T22:01:39.468Z,0.30
2022-09-10T22:04:06.896Z,0.30
2022-09-10T22:06:35.540Z,0.50
2022-09-10T22:09:06.660Z,0.40
2022-09-10T22:14:05.526Z,0.30
2022-09-10T22:16:34.839Z,0.47
2022-09-10T22:19:05.532Z,0.60
2022-09-10T22:21:33.338Z,0.45
2022-09-10T22:24:00.719Z,0.50
2022-09-10T22:26:28.398Z,0.30
2022-09-10T22:28:59.536Z,0.30
2022-09-10T22:33:57.998Z,0.30
2022-09-10T22:36:30.972Z,0.50
2022-09-10T22:39:05.045Z,0.43
2022-09-10T22:41:34.360Z,0.40
2022-09-10T22:44:02.826Z,0.50
2022-09-10T22:46:31.063Z,0.40
2022-09-10T22:48:58.641Z,0.63
2022-09-10T22:51:28.378Z,0.63
2022-09-10T22:53:57.218Z,0.50
2022-09-10T22:56:26.396Z,0.50
2022-09-10T22:58:55.693Z,0.47
2022-09-10T23:01:27.825Z,0.40
2022-09-10T23:04:00.459Z,0.40
2022-09-10T23:06:30.892Z,0.40
2022-09-10T23:09:04.005Z,0.40
2022-09-10T23:11:33.560Z,0.50
2022-09-10T23:14:07.521Z,0.50
2022-09-10T23:16:40.089Z,0.50
2022-09-10T23:19:13.175Z,0.50
2022-09-10T23:21:43.250Z,0.50
2022-09-10T23:24:16.418Z,0.50
2022-09-10T23:26:44.642Z,0.60
2022-09-10T23:29:12.831Z,0.40
2022-09-10T23:31:41.087Z,0.35
2022-09-10T23:34:12.296Z,0.50
2022-09-10T23:36:42.194Z,0.43
2022-09-10T23:39:14.259Z,0.60
2022-09-10T23:41:42.350Z,0.60
2022-09-10T23:44:10.062Z,0.40
2022-09-10T23:46:37.825Z,0.40
2022-09-10T23:49:06.938Z,0.70
2022-09-10T23:51:35.375Z,0.40
2022-09-10T23:54:03.053Z,0.45
2022-09-10T23:56:30.444Z,0.50
2022-09-10T23:59:00.969Z,0.57
